createdAt,value
2023-01-26T00:01:25.587Z,19.57
2023-01-26T00:05:27.496Z,18.27
2023-01-26T00:09:29.424Z,18.33
2023-01-26T00:13:31.478Z,19.63
2023-01-26T00:17:33.363Z,19.43
2023-01-26T00:21:35.356Z,17.53
2023-01-26T00:25:40.359Z,18.47
2023-01-26T00:29:42.195Z,17.67
2023-01-26T00:33:44.025Z,18.53
2023-01-26T00:37:45.935Z,17.63
2023-01-26T00:42:06.079Z,17.13
2023-01-26T00:46:08.002Z,15.80
2023-01-26T00:50:11.410Z,17.07
2023-01-26T00:54:13.635Z,16.07
2023-01-26T00:58:15.661Z,16.73
2023-01-26T01:02:17.671Z,15.53
2023-01-26T01:06:19.707Z,15.83
2023-01-26T01:10:37.997Z,15.00
2023-01-26T01:14:54.648Z,14.57
2023-01-26T01:18:56.617Z,15.43
2023-01-26T01:23:04.524Z,16.07
2023-01-26T01:27:18.950Z,15.47
2023-01-26T01:31:20.961Z,17.03
2023-01-26T01:35:34.576Z,14.93
2023-01-26T01:39:38.798Z,16.57
2023-01-26T01:43:45.384Z,16.03
2023-01-26T01:47:49.807Z,15.73
2023-01-26T01:52:26.252Z,14.20
2023-01-26T01:56:28.315Z,15.00
2023-01-26T02:00:30.406Z,14.90
2023-01-26T02:04:32.326Z,17.00
2023-01-26T02:08:46.760Z,17.97
2023-01-26T02:12:56.762Z,16.77
2023-01-26T02:16:58.584Z,17.10
2023-01-26T02:21:09.607Z,17.87
2023-01-26T02:25:23.605Z,18.13
2023-01-26T02:29:25.441Z,18.10
2023-01-26T02:33:28.866Z,17.50
2023-01-26T02:37:30.714Z,19.07
2023-01-26T02:41:55.783Z,19.17
2023-01-26T02:45:57.846Z,17.33
2023-01-26T02:50:00.686Z,18.80
2023-01-26T02:54:02.481Z,19.63
2023-01-26T02:58:04.989Z,17.23
2023-01-26T03:02:07.157Z,17.83
2023-01-26T03:06:11.123Z,17.67
2023-01-26T03:10:13.514Z,19.07
2023-01-26T03:14:16.064Z,17.20
2023-01-26T03:18:37.223Z,17.80
2023-01-26T03:23:13.847Z,18.50
2023-01-26T03:27:27.509Z,15.40
2023-01-26T03:31:29.400Z,16.53
2023-01-26T03:35:32.612Z,16.10
2023-01-26T03:39:53.217Z,15.33
2023-01-26T03:44:13.614Z,14.43
2023-01-26T03:48:34.226Z,15.17
2023-01-26T03:53:18.895Z,13.33
2023-01-26T03:57:20.823Z,15.50
2023-01-26T04:01:28.294Z,14.63
2023-01-26T04:06:15.552Z,14.13
2023-01-26T04:10:18.442Z,14.43
2023-01-26T04:14:50.514Z,15.63
2023-01-26T04:19:11.291Z,14.13
2023-01-26T04:23:20.057Z,12.30
2023-01-26T04:27:22.070Z,12.63
2023-01-26T04:31:24.041Z,12.77
2023-01-26T04:35:25.886Z,13.00
2023-01-26T04:39:27.933Z,13.70
2023-01-26T04:43:29.755Z,13.73
2023-01-26T04:47:31.775Z,12.73
2023-01-26T04:51:33.740Z,12.30
2023-01-26T04:55:35.507Z,13.47
2023-01-26T04:59:37.514Z,14.17
2023-01-26T05:03:39.471Z,13.97
2023-01-26T05:07:41.398Z,13.70
2023-01-26T05:11:43.296Z,13.30
2023-01-26T05:15:45.152Z,14.10
2023-01-26T05:19:47.074Z,14.63
2023-01-26T05:23:48.892Z,14.40
2023-01-26T05:27:53.956Z,15.13
2023-01-26T05:31:55.844Z,14.97
2023-01-26T05:35:58.790Z,13.47
2023-01-26T05:40:00.770Z,13.30
2023-01-26T05:44:02.794Z,13.50
2023-01-26T05:48:07.307Z,14.47
2023-01-26T05:52:10.920Z,13.97
2023-01-26T05:56:12.852Z,14.60
2023-01-26T06:00:17.103Z,13.13
2023-01-26T06:04:19.177Z,13.47
2023-01-26T06:08:21.340Z,13.77
2023-01-26T06:12:23.408Z,15.47
2023-01-26T06:16:25.432Z,14.13
2023-01-26T06:20:28.487Z,14.00
2023-01-26T06:24:32.589Z,14.33
2023-01-26T06:28:37.164Z,14.37
2023-01-26T06:32:42.283Z,14.97
2023-01-26T06:36:50.976Z,15.23
2023-01-26T06:41:15.754Z,15.93
2023-01-26T06:45:24.902Z,15.57
2023-01-26T06:49:28.775Z,15.23
2023-01-26T06:53:43.358Z,15.83
2023-01-26T06:57:45.461Z,15.63
2023-01-26T07:01:48.756Z,15.40
2023-01-26T07:05:53.403Z,15.80
2023-01-26T07:09:55.330Z,16.03
2023-01-26T07:13:57.233Z,16.37
2023-01-26T07:17:59.536Z,16.33
2023-01-26T07:22:01.956Z,17.60
2023-01-26T07:26:04.476Z,18.23
2023-01-26T07:30:10.596Z,16.10
2023-01-26T07:34:12.778Z,17.57
2023-01-26T07:38:14.720Z,17.37
2023-01-26T07:42:16.695Z,18.60
2023-01-26T07:46:18.639Z,16.30
2023-01-26T07:50:21.737Z,16.87
2023-01-26T07:54:23.643Z,15.20
2023-01-26T07:58:25.434Z,16.70
2023-01-26T08:02:27.300Z,15.77
2023-01-26T08:06:29.366Z,17.40
2023-01-26T08:10:34.197Z,17.10
2023-01-26T08:14:46.422Z,18.43
2023-01-26T08:18:49.025Z,17.90
2023-01-26T08:22:50.921Z,16.57
2023-01-26T08:26:55.229Z,19.83
2023-01-26T08:30:57.359Z,19.47
2023-01-26T08:34:59.578Z,18.40
2023-01-26T08:39:02.773Z,17.60
2023-01-26T08:43:04.858Z,16.47
2023-01-26T08:47:06.839Z,15.70
2023-01-26T08:51:08.982Z,15.43
2023-01-26T08:55:10.953Z,15.20
2023-01-26T08:59:12.814Z,14.57
2023-01-26T09:03:15.020Z,15.17
2023-01-26T09:07:17.963Z,15.53
2023-01-26T09:11:19.735Z,15.50
2023-01-26T09:15:21.680Z,15.77
2023-01-26T09:19:25.757Z,15.17
2023-01-26T09:23:27.625Z,15.57
2023-01-26T09:27:29.428Z,16.20
2023-01-26T09:31:31.428Z,15.03
2023-01-26T09:35:35.139Z,16.00
2023-01-26T09:39:37.056Z,14.37
2023-01-26T09:43:49.959Z,13.83
2023-01-26T09:48:31.740Z,15.30
2023-01-26T09:52:36.872Z,14.40
2023-01-26T09:56:38.841Z,14.63
2023-01-26T10:00:49.953Z,13.70
2023-01-26T10:04:53.608Z,13.90
2023-01-26T10:08:56.504Z,14.67
2023-01-26T10:12:58.452Z,14.63
2023-01-26T10:17:00.724Z,15.20
2023-01-26T10:21:04.148Z,13.80
2023-01-26T10:25:30.046Z,15.07
2023-01-26T10:29:31.852Z,14.10
2023-01-26T10:33:37.611Z,13.90
2023-01-26T10:37:39.590Z,13.47
2023-01-26T10:41:43.023Z,14.50
2023-01-26T10:45:48.683Z,12.63
2023-01-26T10:49:50.450Z,13.00
2023-01-26T10:54:21.058Z,15.07
2023-01-26T10:58:42.921Z,14.40
2023-01-26T11:02:54.012Z,15.10
2023-01-26T11:07:11.792Z,14.73
2023-01-26T11:11:28.242Z,14.30
2023-01-26T11:15:45.302Z,14.20
2023-01-26T11:20:17.723Z,15.33
2023-01-26T11:25:09.165Z,14.30
2023-01-26T11:29:31.053Z,14.10
2023-01-26T11:33:48.841Z,14.33
2023-01-26T11:38:40.828Z,14.60
2023-01-26T11:43:01.595Z,13.37
2023-01-26T11:47:16.089Z,15.03
2023-01-26T11:51:29.919Z,13.97
2023-01-26T11:56:07.258Z,13.27
2023-01-26T12:00:30.207Z,13.10
2023-01-26T12:04:37.708Z,12.57
2023-01-26T12:08:47.826Z,11.67
2023-01-26T12:13:27.847Z,12.77
2023-01-26T12:18:18.751Z,12.70
2023-01-26T12:22:43.263Z,14.10
2023-01-26T12:26:48.309Z,13.40
2023-01-26T12:31:27.908Z,12.67
2023-01-26T12:36:17.235Z,11.03
2023-01-26T12:40:51.411Z,11.43
2023-01-26T12:45:03.220Z,12.13
2023-01-26T12:49:21.536Z,11.10
2023-01-26T12:53:34.989Z,10.77
2023-01-26T12:58:03.032Z,10.57
2023-01-26T13:02:30.590Z,10.40
2023-01-26T13:06:32.779Z,10.90
2023-01-26T13:10:47.025Z,10.67
2023-01-26T13:15:10.422Z,8.40
2023-01-26T13:19:44.588Z,8.90
2023-01-26T13:23:52.715Z,9.60
2023-01-26T13:28:04.328Z,9.17
2023-01-26T13:32:26.322Z,9.57
2023-01-26T13:36:30.752Z,9.33
2023-01-26T13:40:38.009Z,8.80
2023-01-26T13:44:45.475Z,9.20
2023-01-26T13:48:52.366Z,9.20
2023-01-26T13:52:54.281Z,9.67
2023-01-26T13:57:06.938Z,10.43
2023-01-26T14:01:12.808Z,9.80
2023-01-26T14:05:22.633Z,9.53
2023-01-26T14:09:27.759Z,9.37
2023-01-26T14:13:38.747Z,8.63
2023-01-26T14:18:01.427Z,9.50
2023-01-26T14:22:05.292Z,8.37
2023-01-26T14:26:29.521Z,8.97
2023-01-26T14:30:34.132Z,8.47
2023-01-26T14:34:35.993Z,9.60
2023-01-26T14:38:48.874Z,8.93
2023-01-26T14:42:52.533Z,10.20
2023-01-26T14:47:26.559Z,8.33
2023-01-26T14:51:28.511Z,8.77
2023-01-26T14:55:39.574Z,9.27
2023-01-26T14:59:41.372Z,9.70
2023-01-26T15:03:43.276Z,9.00
2023-01-26T15:08:02.337Z,9.27
2023-01-26T15:12:16.834Z,9.73
2023-01-26T15:16:23.098Z,9.03
2023-01-26T15:20:24.923Z,8.80
2023-01-26T15:24:26.894Z,8.80
2023-01-26T15:28:28.757Z,8.90
2023-01-26T15:32:44.534Z,8.40
2023-01-26T15:36:50.589Z,9.30
2023-01-26T15:40:52.501Z,7.93
2023-01-26T15:44:54.768Z,9.40
2023-01-26T15:48:57.045Z,8.70
2023-01-26T15:52:59.171Z,8.03
2023-01-26T15:57:03.238Z,8.60
2023-01-26T16:01:06.384Z,8.47
2023-01-26T16:05:20.633Z,10.23
2023-01-26T16:09:22.707Z,9.77
2023-01-26T16:13:27.430Z,9.50
2023-01-26T16:17:29.667Z,8.87
2023-01-26T16:21:45.743Z,9.10
2023-01-26T16:25:47.862Z,10.17
2023-01-26T16:29:49.885Z,9.60
2023-01-26T16:33:52.068Z,9.77
2023-01-26T16:37:59.736Z,10.43
2023-01-26T16:42:06.598Z,9.30
2023-01-26T16:46:14.172Z,10.40
2023-01-26T16:50:16.487Z,9.53
2023-01-26T16:54:18.459Z,8.63
2023-01-26T16:58:24.047Z,9.93
2023-01-26T17:02:28.208Z,9.67
2023-01-26T17:06:32.032Z,9.40
2023-01-26T17:10:34.008Z,9.40
2023-01-26T17:14:39.151Z,9.90
2023-01-26T17:18:41.775Z,10.73
2023-01-26T17:22:43.704Z,9.83
2023-01-26T17:26:45.670Z,10.73
2023-01-26T17:31:23.273Z,10.83
2023-01-26T17:35:25.354Z,8.97
2023-01-26T17:39:30.505Z,8.90
2023-01-26T17:43:32.632Z,8.87
2023-01-26T17:47:34.748Z,10.90
2023-01-26T17:51:36.519Z,9.47
2023-01-26T17:55:38.618Z,9.03
2023-01-26T17:59:42.726Z,9.00
2023-01-26T18:03:44.937Z,9.60
2023-01-26T18:07:51.522Z,11.57
2023-01-26T18:11:53.816Z,7.80
2023-01-26T18:15:59.873Z,7.27
2023-01-26T18:20:07.604Z,7.77
2023-01-26T18:24:13.428Z,7.37
2023-01-26T18:28:28.802Z,6.53
2023-01-26T18:32:30.965Z,6.83
2023-01-26T18:36:33.812Z,6.50
2023-01-26T18:40:58.468Z,7.23
2023-01-26T18:45:03.546Z,8.50
2023-01-26T18:49:22.980Z,7.53
2023-01-26T18:53:50.552Z,7.93
2023-01-26T18:58:12.343Z,7.17
2023-01-26T19:02:47.036Z,7.60
2023-01-26T19:07:01.749Z,8.00
2023-01-26T19:11:05.797Z,7.87
2023-01-26T19:15:09.459Z,7.57
2023-01-26T19:19:11.914Z,8.83
2023-01-26T19:23:13.929Z,8.93
2023-01-26T19:27:23.675Z,8.93
2023-01-26T19:31:28.946Z,9.63
2023-01-26T19:35:32.082Z,9.20
2023-01-26T19:39:36.814Z,9.53
2023-01-26T19:43:38.945Z,9.30
2023-01-26T19:47:41.775Z,9.70
2023-01-26T19:51:43.692Z,10.33
2023-01-26T19:55:45.659Z,10.00
2023-01-26T19:59:47.563Z,9.60
2023-01-26T20:04:12.651Z,9.43
2023-01-26T20:08:14.660Z,8.57
2023-01-26T20:12:27.312Z,8.93
2023-01-26T20:21:00.673Z,9.10
2023-01-26T20:25:02.875Z,8.20
2023-01-26T20:29:08.763Z,8.03
2023-01-26T20:33:15.969Z,8.57
2023-01-26T20:37:21.663Z,8.93
2023-01-26T20:41:27.768Z,9.47
2023-01-26T20:45:29.852Z,9.43
2023-01-26T20:49:31.817Z,8.20
2023-01-26T20:53:34.086Z,9.50
2023-01-26T20:57:36.377Z,9.67
2023-01-26T21:01:44.185Z,9.57
2023-01-26T21:05:46.317Z,8.80
2023-01-26T21:09:48.298Z,9.77
2023-01-26T21:13:52.685Z,8.97
2023-01-26T21:17:59.709Z,9.27
2023-01-26T21:26:59.539Z,7.97
2023-01-26T21:31:09.495Z,8.50
2023-01-26T21:35:13.762Z,8.83
2023-01-26T21:39:15.762Z,9.50
2023-01-26T21:43:17.771Z,8.67
2023-01-26T21:47:19.793Z,8.87
2023-01-26T21:51:54.114Z,8.43
2023-01-26T21:55:55.911Z,8.30
2023-01-26T21:59:57.725Z,9.20
2023-01-26T22:04:01.693Z,9.23
2023-01-26T22:08:03.613Z,8.83
2023-01-26T22:12:05.962Z,10.07
2023-01-26T22:16:08.275Z,9.30
2023-01-26T22:20:11.790Z,9.63
2023-01-26T22:24:14.720Z,9.70
2023-01-26T22:28:16.666Z,9.50
2023-01-26T22:32:18.588Z,9.23
2023-01-26T22:36:21.388Z,8.00
2023-01-26T22:40:23.347Z,9.13
2023-01-26T22:44:25.242Z,9.27
2023-01-26T22:48:27.345Z,9.07
2023-01-26T22:52:29.657Z,8.97
2023-01-26T22:56:31.663Z,9.13
2023-01-26T23:00:33.995Z,9.03
2023-01-26T23:04:35.846Z,10.20
2023-01-26T23:08:37.823Z,9.77
2023-01-26T23:12:41.832Z,9.87
2023-01-26T23:16:43.865Z,11.17
2023-01-26T23:20:45.888Z,10.20
2023-01-26T23:25:07.664Z,10.50
2023-01-26T23:29:09.598Z,9.60
2023-01-26T23:33:11.463Z,10.27
2023-01-26T23:37:13.410Z,9.67
2023-01-26T23:41:17.879Z,9.23
2023-01-26T23:45:19.698Z,9.27
2023-01-26T23:49:21.654Z,8.83
2023-01-26T23:53:24.124Z,9.33
2023-01-26T23:57:26.393Z,8.07
